createdAt,value
2018-11-12T00:01:27.441Z,38.70
2018-11-12T00:04:03.320Z,35.70
2018-11-12T00:06:39.158Z,34.20
2018-11-12T00:09:15.008Z,28.93
2018-11-12T00:11:50.792Z,26.83
2018-11-12T00:14:26.709Z,28.60
2018-11-12T00:17:02.594Z,28.27
2018-11-12T00:19:38.417Z,32.13
2018-11-12T00:22:14.213Z,31.43
2018-11-12T00:24:50.179Z,36.97
2018-11-12T00:27:26.000Z,36.57
2018-11-12T00:30:01.729Z,37.00
2018-11-12T00:32:37.484Z,38.73
2018-11-12T00:35:15.364Z,38.27
2018-11-12T00:37:51.136Z,32.37
2018-11-12T00:40:27.009Z,42.87
2018-11-12T00:43:02.911Z,44.43
2018-11-12T00:45:38.680Z,44.73
2018-11-12T00:48:14.542Z,43.77
2018-11-12T00:50:50.480Z,40.40
2018-11-12T00:53:26.330Z,33.13
2018-11-12T00:56:02.225Z,33.00
2018-11-12T00:58:38.187Z,35.77
2018-11-12T01:01:14.106Z,36.37
2018-11-12T01:03:49.844Z,37.67
2018-11-12T01:06:25.818Z,38.83
2018-11-12T01:09:01.621Z,38.20
2018-11-12T01:11:37.600Z,35.70
2018-11-12T01:14:13.361Z,39.77
2018-11-12T01:16:49.232Z,43.00
2018-11-12T01:19:25.174Z,41.20
2018-11-12T01:22:01.138Z,38.80
2018-11-12T01:24:36.980Z,37.40
2018-11-12T01:27:13.351Z,34.70
2018-11-12T01:29:49.185Z,36.13
2018-11-12T01:32:25.084Z,37.17
2018-11-12T01:35:00.949Z,37.67
2018-11-12T01:37:36.724Z,36.20
2018-11-12T01:40:13.527Z,32.27
2018-11-12T01:42:49.235Z,31.13
2018-11-12T01:45:25.093Z,34.33
2018-11-12T01:48:00.918Z,33.57
2018-11-12T01:50:36.708Z,33.00
2018-11-12T01:53:12.499Z,35.00
2018-11-12T01:55:48.446Z,33.93
2018-11-12T01:58:24.390Z,34.97
2018-11-12T02:01:00.314Z,40.90
2018-11-12T02:03:36.184Z,40.30
2018-11-12T02:06:12.144Z,53.40
2018-11-12T02:08:48.116Z,67.53
2018-11-12T02:11:24.100Z,52.63
2018-11-12T02:14:00.081Z,43.23
2018-11-12T02:16:35.852Z,44.37
2018-11-12T02:19:11.729Z,39.37
2018-11-12T02:21:47.464Z,38.53
2018-11-12T02:24:23.254Z,37.13
2018-11-12T02:26:59.070Z,38.70
2018-11-12T02:29:35.112Z,39.67
2018-11-12T02:32:10.993Z,42.80
2018-11-12T02:34:46.809Z,39.90
2018-11-12T02:37:22.659Z,37.47
2018-11-12T02:39:58.420Z,30.03
2018-11-12T02:42:34.319Z,31.43
2018-11-12T02:45:11.161Z,34.23
2018-11-12T02:47:46.872Z,32.17
2018-11-12T02:50:22.733Z,34.20
2018-11-12T02:52:58.582Z,33.30
2018-11-12T02:55:34.356Z,34.97
2018-11-12T02:58:10.168Z,33.20
2018-11-12T03:00:46.056Z,31.73
2018-11-12T03:03:21.968Z,36.97
2018-11-12T03:05:57.741Z,38.43
2018-11-12T03:08:33.478Z,37.30
2018-11-12T03:11:09.329Z,38.90
2018-11-12T03:13:45.163Z,37.20
2018-11-12T03:16:20.957Z,33.87
2018-11-12T03:18:56.759Z,39.80
2018-11-12T03:21:32.742Z,44.33
2018-11-12T03:24:09.044Z,41.63
2018-11-12T03:26:44.802Z,40.00
2018-11-12T03:29:20.614Z,40.67
2018-11-12T03:31:56.486Z,46.67
2018-11-12T03:34:32.361Z,60.70
2018-11-12T03:37:08.512Z,46.07
2018-11-12T03:39:44.297Z,33.63
2018-11-12T03:42:20.227Z,34.33
2018-11-12T03:44:55.895Z,40.20
2018-11-12T03:47:31.860Z,35.77
2018-11-12T03:50:10.011Z,39.43
2018-11-12T03:52:46.094Z,38.10
2018-11-12T03:55:22.846Z,34.17
2018-11-12T03:57:58.770Z,37.30
2018-11-12T04:00:34.653Z,36.83
2018-11-12T04:03:10.489Z,36.13
2018-11-12T04:05:46.319Z,51.63
2018-11-12T04:08:22.179Z,50.30
2018-11-12T04:10:57.980Z,45.80
2018-11-12T04:13:33.813Z,41.00
2018-11-12T04:16:09.664Z,37.83
2018-11-12T04:18:45.568Z,36.70
2018-11-12T04:21:21.526Z,37.80
2018-11-12T04:23:57.408Z,35.90
2018-11-12T04:26:33.199Z,36.97
2018-11-12T04:29:08.969Z,36.83
2018-11-12T04:31:44.772Z,41.03
2018-11-12T04:34:20.902Z,49.63
2018-11-12T04:36:56.666Z,36.93
2018-11-12T04:39:32.586Z,53.40
2018-11-12T04:42:08.415Z,38.77
2018-11-12T04:44:44.355Z,50.70
2018-11-12T04:47:20.384Z,67.17
2018-11-12T04:49:56.602Z,56.40
2018-11-12T04:52:33.185Z,58.63
2018-11-12T04:55:10.284Z,56.30
2018-11-12T04:57:46.866Z,51.63
2018-11-12T05:00:24.373Z,51.53
2018-11-12T05:03:00.196Z,75.60
2018-11-12T05:05:35.943Z,61.07
2018-11-12T05:08:11.792Z,50.87
2018-11-12T05:10:47.895Z,51.17
2018-11-12T05:13:23.758Z,58.50
2018-11-12T05:15:59.747Z,53.30
2018-11-12T05:18:35.617Z,51.97
2018-11-12T05:21:11.530Z,62.27
2018-11-12T05:23:47.439Z,69.20
2018-11-12T05:26:23.354Z,77.10
2018-11-12T05:28:59.320Z,80.07
2018-11-12T05:31:35.410Z,80.20
2018-11-12T05:34:11.300Z,72.70
2018-11-12T05:36:47.624Z,55.37
2018-11-12T05:39:23.446Z,60.50
2018-11-12T05:41:59.421Z,51.27
2018-11-12T05:44:35.313Z,51.70
2018-11-12T05:47:11.287Z,43.47
2018-11-12T05:49:47.155Z,53.93
2018-11-12T05:52:23.172Z,46.50
2018-11-12T05:54:59.193Z,45.07
2018-11-12T05:57:35.019Z,87.30
2018-11-12T06:00:12.380Z,67.37
2018-11-12T06:02:48.173Z,58.07
2018-11-12T06:05:23.910Z,64.03
2018-11-12T06:08:02.844Z,84.23
2018-11-12T06:10:38.575Z,106.37
2018-11-12T06:13:14.561Z,106.57
2018-11-12T06:15:50.329Z,122.60
2018-11-12T06:18:26.231Z,73.87
2018-11-12T06:22:26.536Z,64.10
2018-11-12T06:25:02.498Z,47.50
2018-11-12T06:27:38.509Z,54.87
2018-11-12T06:30:16.232Z,73.37
2018-11-12T06:32:51.931Z,47.57
2018-11-12T06:35:27.824Z,61.37
2018-11-12T06:38:04.017Z,57.03
2018-11-12T06:40:39.620Z,52.27
2018-11-12T06:43:21.605Z,71.80
2018-11-12T06:45:57.390Z,70.67
2018-11-12T06:48:33.069Z,92.63
2018-11-12T06:51:08.894Z,109.90
2018-11-12T06:53:44.884Z,61.13
2018-11-12T06:56:20.997Z,87.37
2018-11-12T06:58:56.898Z,67.07
2018-11-12T07:01:33.233Z,55.00
2018-11-12T07:04:09.155Z,62.90
2018-11-12T07:07:06.625Z,59.60
2018-11-12T07:09:42.577Z,50.57
2018-11-12T07:12:18.465Z,48.57
2018-11-12T07:14:54.394Z,51.03
2018-11-12T07:17:30.241Z,49.37
2018-11-12T07:20:07.905Z,47.00
2018-11-12T07:22:43.959Z,49.43
2018-11-12T07:25:27.306Z,74.80
2018-11-12T07:28:03.221Z,54.73
2018-11-12T07:30:39.091Z,64.47
2018-11-12T07:33:15.165Z,58.47
2018-11-12T07:35:51.014Z,64.03
2018-11-12T07:38:26.904Z,71.33
2018-11-12T07:41:02.759Z,69.63
2018-11-12T07:43:38.621Z,62.43
2018-11-12T07:46:14.395Z,60.07
2018-11-12T07:48:54.561Z,53.40
2018-11-12T07:51:30.561Z,50.13
2018-11-12T07:54:06.681Z,52.00
2018-11-12T07:56:42.573Z,63.50
2018-11-12T07:59:18.810Z,73.90
2018-11-12T08:01:54.792Z,61.07
2018-11-12T08:04:30.665Z,65.07
2018-11-12T08:07:07.299Z,68.23
2018-11-12T08:09:43.131Z,69.37
2018-11-12T08:12:19.127Z,66.90
2018-11-12T08:14:55.142Z,61.80
2018-11-12T08:17:31.257Z,58.40
2018-11-12T08:20:08.756Z,59.37
2018-11-12T08:22:45.639Z,48.00
2018-11-12T08:25:21.705Z,50.60
2018-11-12T08:28:00.236Z,56.33
2018-11-12T08:30:36.227Z,55.90
2018-11-12T08:33:12.696Z,52.30
2018-11-12T08:35:49.309Z,47.13
2018-11-12T08:38:25.084Z,47.67
2018-11-12T08:41:01.083Z,47.47
2018-11-12T08:43:37.005Z,49.57
2018-11-12T08:46:12.907Z,37.43
2018-11-12T08:48:48.883Z,41.37
2018-11-12T08:51:24.886Z,39.20
2018-11-12T08:54:00.864Z,40.17
2018-11-12T08:56:36.748Z,40.60
2018-11-12T08:59:12.704Z,33.93
2018-11-12T09:01:48.634Z,36.30
2018-11-12T09:04:24.537Z,27.30
2018-11-12T09:07:00.446Z,35.77
2018-11-12T09:09:36.512Z,38.70
2018-11-12T09:12:12.349Z,32.90
2018-11-12T09:14:48.091Z,33.00
2018-11-12T09:17:24.086Z,27.70
2018-11-12T09:19:59.965Z,27.03
2018-11-12T09:22:35.724Z,15.67
2018-11-12T09:25:13.943Z,23.90
2018-11-12T09:27:49.917Z,19.57
2018-11-12T09:30:27.087Z,20.97
2018-11-12T09:33:03.206Z,23.63
2018-11-12T09:35:39.078Z,24.97
2018-11-12T09:38:14.944Z,28.73
2018-11-12T09:40:50.718Z,27.00
2018-11-12T09:43:26.566Z,27.77
2018-11-12T09:46:02.438Z,29.00
2018-11-12T09:48:38.842Z,28.97
2018-11-12T09:51:15.112Z,33.20
2018-11-12T09:53:51.068Z,29.53
2018-11-12T09:56:26.901Z,28.77
2018-11-12T09:59:02.826Z,30.33
2018-11-12T10:01:39.026Z,31.30
2018-11-12T10:04:14.828Z,34.73
2018-11-12T10:06:52.480Z,38.37
2018-11-12T10:09:29.142Z,38.07
2018-11-12T10:12:05.361Z,35.10
2018-11-12T10:14:41.936Z,40.00
2018-11-12T10:17:17.955Z,29.13
2018-11-12T10:19:51.490Z,28.33
2018-11-12T10:22:27.345Z,28.23
2018-11-12T10:25:03.292Z,24.07
2018-11-12T10:27:39.091Z,26.47
2018-11-12T10:30:14.940Z,22.33
2018-11-12T10:32:50.816Z,20.57
2018-11-12T10:35:26.786Z,20.73
2018-11-12T10:38:02.700Z,19.77
2018-11-12T10:40:38.510Z,19.67
2018-11-12T10:43:14.374Z,20.83
2018-11-12T10:45:50.185Z,20.00
2018-11-12T10:48:26.189Z,18.47
2018-11-12T10:51:05.169Z,18.20
2018-11-12T10:53:38.303Z,19.33
2018-11-12T10:56:14.361Z,18.83
2018-11-12T10:58:50.329Z,17.23
2018-11-12T11:01:32.085Z,18.93
2018-11-12T11:04:13.045Z,17.13
2018-11-12T11:06:49.021Z,18.90
2018-11-12T11:09:24.900Z,16.63
2018-11-12T11:12:00.882Z,16.20
2018-11-12T11:14:36.648Z,16.57
2018-11-12T11:17:12.630Z,20.73
2018-11-12T11:19:48.395Z,23.57
2018-11-12T11:22:24.455Z,14.50
2018-11-12T11:25:00.450Z,15.33
2018-11-12T11:27:36.260Z,12.03
2018-11-12T11:30:13.728Z,12.57
2018-11-12T11:32:49.678Z,14.77
2018-11-12T11:35:25.713Z,12.97
2018-11-12T11:38:01.601Z,12.87
2018-11-12T11:40:37.509Z,13.37
2018-11-12T11:43:13.709Z,12.03
2018-11-12T11:45:49.940Z,14.10
2018-11-12T11:48:25.797Z,16.13
2018-11-12T11:51:01.581Z,15.30
2018-11-12T11:53:37.566Z,15.97
2018-11-12T11:56:13.357Z,12.93
2018-11-12T11:58:49.114Z,14.37
2018-11-12T12:01:24.981Z,16.13
2018-11-12T12:04:02.005Z,15.13
2018-11-12T12:06:37.776Z,12.20
2018-11-12T12:09:13.829Z,13.60
2018-11-12T12:11:49.793Z,11.57
2018-11-12T12:14:25.989Z,13.20
2018-11-12T12:17:01.800Z,12.40
2018-11-12T12:19:37.599Z,13.27
2018-11-12T12:22:13.381Z,13.33
2018-11-12T12:24:49.325Z,13.00
2018-11-12T12:27:25.138Z,13.67
2018-11-12T12:30:01.003Z,13.20
2018-11-12T12:32:36.850Z,12.73
2018-11-12T12:36:37.272Z,17.93
2018-11-12T12:39:13.220Z,11.30
2018-11-12T12:41:49.216Z,15.03
2018-11-12T12:44:24.877Z,12.33
2018-11-12T12:47:01.084Z,11.80
2018-11-12T12:49:37.003Z,14.30
2018-11-12T12:52:13.016Z,13.17
2018-11-12T12:54:48.850Z,14.70
2018-11-12T12:57:24.680Z,13.67
2018-11-12T13:00:00.473Z,12.80
2018-11-12T13:02:36.527Z,15.00
2018-11-12T13:05:12.384Z,15.83
2018-11-12T13:07:48.325Z,14.27
2018-11-12T13:10:24.926Z,13.23
2018-11-12T13:13:00.849Z,12.63
2018-11-12T13:15:36.599Z,12.33
2018-11-12T13:19:36.992Z,14.10
2018-11-12T13:22:13.941Z,14.00
2018-11-12T13:24:50.032Z,13.17
2018-11-12T13:27:25.829Z,13.60
2018-11-12T13:30:01.837Z,14.13
2018-11-12T13:32:38.485Z,15.67
2018-11-12T13:35:15.548Z,16.97
2018-11-12T13:37:51.436Z,20.10
2018-11-12T13:40:27.959Z,13.57
2018-11-12T13:43:03.858Z,13.47
2018-11-12T13:45:39.810Z,13.90
2018-11-12T13:48:15.645Z,14.63
2018-11-12T13:50:51.457Z,14.03
2018-11-12T13:53:27.359Z,14.23
2018-11-12T13:56:03.164Z,16.90
2018-11-12T13:58:38.839Z,20.43
2018-11-12T14:01:14.883Z,18.27
2018-11-12T14:03:50.567Z,21.87
2018-11-12T14:06:26.519Z,20.40
2018-11-12T14:09:02.287Z,23.23
2018-11-12T14:11:38.266Z,28.80
2018-11-12T14:14:14.153Z,43.20
2018-11-12T14:16:50.276Z,53.23
2018-11-12T14:19:26.007Z,83.80
2018-11-12T14:22:01.712Z,76.73
2018-11-12T14:24:37.427Z,89.23
2018-11-12T14:27:14.006Z,70.33
2018-11-12T14:29:50.631Z,57.40
2018-11-12T14:32:26.519Z,45.27
2018-11-12T14:35:02.372Z,52.70
2018-11-12T14:37:38.232Z,48.07
2018-11-12T14:40:15.157Z,43.23
2018-11-12T14:42:51.098Z,46.23
2018-11-12T14:45:26.964Z,48.53
2018-11-12T14:48:03.099Z,45.23
2018-11-12T14:50:39.117Z,46.27
2018-11-12T14:53:15.124Z,42.47
2018-11-12T14:55:50.901Z,50.03
2018-11-12T14:58:21.675Z,51.43
2018-11-12T15:00:52.439Z,55.90
2018-11-12T15:03:23.331Z,52.60
2018-11-12T15:05:54.137Z,131.67
2018-11-12T15:08:24.976Z,58.87
2018-11-12T15:10:55.825Z,59.83
2018-11-12T15:13:26.657Z,60.73
2018-11-12T15:15:57.522Z,77.93
2018-11-12T15:18:28.396Z,149.70
2018-11-12T15:20:59.241Z,209.97
2018-11-12T15:23:30.309Z,183.07
2018-11-12T15:26:01.137Z,118.50
2018-11-12T15:28:32.030Z,65.50
2018-11-12T15:31:02.943Z,42.83
2018-11-12T15:33:33.836Z,31.33
2018-11-12T15:36:04.637Z,35.90
2018-11-12T15:38:35.462Z,26.17
2018-11-12T15:41:06.880Z,25.17
2018-11-12T15:43:37.734Z,32.20
2018-11-12T15:46:08.545Z,31.73
2018-11-12T15:48:39.853Z,42.47
2018-11-12T15:51:10.687Z,45.77
2018-11-12T15:53:41.530Z,80.20
2018-11-12T15:56:12.301Z,129.07
2018-11-12T15:58:43.207Z,106.83
2018-11-12T16:01:13.976Z,127.83
2018-11-12T16:03:44.902Z,114.47
2018-11-12T16:06:15.737Z,192.60
2018-11-12T16:08:46.802Z,118.83
2018-11-12T16:11:17.568Z,140.17
2018-11-12T16:13:48.438Z,107.87
2018-11-12T16:16:22.634Z,53.13
2018-11-12T16:18:53.597Z,93.90
2018-11-12T16:21:24.472Z,110.13
2018-11-12T16:23:55.325Z,97.43
2018-11-12T16:26:26.169Z,125.47
2018-11-12T16:29:00.621Z,102.73
2018-11-12T16:31:31.497Z,96.80
2018-11-12T16:34:07.735Z,113.53
2018-11-12T16:36:38.542Z,99.90
2018-11-12T16:39:10.981Z,105.40
2018-11-12T16:41:41.874Z,94.43
2018-11-12T16:44:12.735Z,61.27
2018-11-12T16:46:43.562Z,67.03
2018-11-12T16:49:21.233Z,167.67
2018-11-12T16:51:52.055Z,129.40
2018-11-12T16:54:22.917Z,255.90
2018-11-12T16:56:53.836Z,260.07
2018-11-12T16:59:24.630Z,245.67
2018-11-12T17:01:55.384Z,262.10
2018-11-12T17:04:26.547Z,137.27
2018-11-12T17:06:57.328Z,115.53
2018-11-12T17:09:28.173Z,92.70
2018-11-12T17:12:01.744Z,85.60
2018-11-12T17:14:32.878Z,129.77
2018-11-12T17:17:03.980Z,109.03
2018-11-12T17:19:34.906Z,83.97
2018-11-12T17:22:05.768Z,67.40
2018-11-12T17:24:37.026Z,113.97
2018-11-12T17:27:07.780Z,242.57
2018-11-12T17:29:38.634Z,276.10
2018-11-12T17:32:10.156Z,247.43
2018-11-12T17:34:41.076Z,197.47
2018-11-12T17:37:12.485Z,127.30
2018-11-12T17:39:43.399Z,97.07
2018-11-12T17:42:14.270Z,115.53
2018-11-12T17:44:45.108Z,101.13
2018-11-12T17:47:15.977Z,86.67
2018-11-12T17:49:46.882Z,113.80
2018-11-12T17:52:17.721Z,120.33
2018-11-12T17:54:48.572Z,150.87
2018-11-12T17:57:19.421Z,114.47
2018-11-12T17:59:50.490Z,131.83
2018-11-12T18:02:21.334Z,121.87
2018-11-12T18:04:52.212Z,177.60
2018-11-12T18:07:23.129Z,130.37
2018-11-12T18:09:54.061Z,97.53
2018-11-12T18:12:24.877Z,90.90
2018-11-12T18:14:55.728Z,114.00
2018-11-12T18:17:26.489Z,205.77
2018-11-12T18:19:57.370Z,254.97
2018-11-12T18:22:28.205Z,327.27
2018-11-12T18:24:59.037Z,226.00
2018-11-12T18:27:29.820Z,188.70
2018-11-12T18:30:00.907Z,107.13
2018-11-12T18:32:31.877Z,97.70
2018-11-12T18:35:02.926Z,90.73
2018-11-12T18:37:33.744Z,64.60
2018-11-12T18:40:05.035Z,47.20
2018-11-12T18:42:35.931Z,56.17
2018-11-12T18:45:09.262Z,76.07
2018-11-12T18:47:40.503Z,68.67
2018-11-12T18:50:14.376Z,104.17
2018-11-12T18:52:45.590Z,76.43
2018-11-12T18:55:16.636Z,71.63
2018-11-12T18:57:48.346Z,62.77
2018-11-12T19:00:23.422Z,100.20
2018-11-12T19:02:54.494Z,70.30
2018-11-12T19:05:29.612Z,79.50
2018-11-12T19:08:03.409Z,126.27
2018-11-12T19:10:35.147Z,160.03
2018-11-12T19:13:06.195Z,158.20
2018-11-12T19:15:38.223Z,119.40
2018-11-12T19:18:12.297Z,101.40
2018-11-12T19:20:43.210Z,108.37
2018-11-12T19:23:14.050Z,62.80
2018-11-12T19:25:46.198Z,48.33
2018-11-12T19:28:21.742Z,63.30
2018-11-12T19:30:53.952Z,54.30
2018-11-12T19:33:24.746Z,57.80
2018-11-12T19:35:55.691Z,60.80
2018-11-12T19:38:26.552Z,71.80
2018-11-12T19:40:57.656Z,71.17
2018-11-12T19:43:29.460Z,150.27
2018-11-12T19:46:00.322Z,93.63
2018-11-12T19:48:31.213Z,71.73
2018-11-12T19:51:02.146Z,83.83
2018-11-12T19:53:33.279Z,94.43
2018-11-12T19:56:04.144Z,81.77
2018-11-12T19:58:35.617Z,97.90
2018-11-12T20:01:06.588Z,214.73
2018-11-12T20:03:37.453Z,291.67
2018-11-12T20:06:08.544Z,304.13
2018-11-12T20:08:50.033Z,246.80
2018-11-12T20:11:20.908Z,175.90
2018-11-12T20:13:51.716Z,144.57
2018-11-12T20:16:22.609Z,82.77
2018-11-12T20:18:53.391Z,43.83
2018-11-12T20:21:24.620Z,42.83
2018-11-12T20:23:55.412Z,84.73
2018-11-12T20:26:26.327Z,64.70
2018-11-12T20:28:57.117Z,56.07
2018-11-12T20:31:27.951Z,52.57
2018-11-12T20:33:58.795Z,56.27
2018-11-12T20:36:31.213Z,72.07
2018-11-12T20:39:02.600Z,90.20
2018-11-12T20:41:35.690Z,73.07
2018-11-12T20:44:08.888Z,73.43
2018-11-12T20:46:39.831Z,66.13
2018-11-12T20:49:10.767Z,71.83
2018-11-12T20:51:41.721Z,82.83
2018-11-12T20:54:12.544Z,76.53
2018-11-12T20:56:43.396Z,123.33
2018-11-12T20:59:19.179Z,105.73
2018-11-12T21:01:55.273Z,94.33
2018-11-12T21:04:31.287Z,223.00
2018-11-12T21:07:07.240Z,196.33
2018-11-12T21:09:43.130Z,147.47
2018-11-12T21:13:43.526Z,116.87
2018-11-12T21:16:19.534Z,102.93
2018-11-12T21:18:55.186Z,88.43
2018-11-12T21:21:31.053Z,88.40
2018-11-12T21:24:07.096Z,65.57
2018-11-12T21:26:42.845Z,39.27
2018-11-12T21:29:18.572Z,49.37
2018-11-12T21:31:54.332Z,49.53
2018-11-12T21:34:30.351Z,48.07
2018-11-12T21:37:06.329Z,43.60
2018-11-12T21:39:42.442Z,123.53
2018-11-12T21:42:18.347Z,60.93
2018-11-12T21:44:54.375Z,62.83
2018-11-12T21:47:30.104Z,78.93
2018-11-12T21:50:08.050Z,79.97
2018-11-12T21:52:43.847Z,98.40
2018-11-12T21:55:19.873Z,71.57
2018-11-12T21:57:55.829Z,72.23
2018-11-12T22:00:31.963Z,74.17
2018-11-12T22:03:07.938Z,80.50
2018-11-12T22:05:43.794Z,61.87
2018-11-12T22:08:19.676Z,62.87
2018-11-12T22:10:55.913Z,68.00
2018-11-12T22:13:31.837Z,69.23
2018-11-12T22:16:08.225Z,105.37
2018-11-12T22:18:44.175Z,86.23
2018-11-12T22:21:20.054Z,77.33
2018-11-12T22:23:55.914Z,67.67
2018-11-12T22:26:31.838Z,60.93
2018-11-12T22:29:07.793Z,57.13
2018-11-12T22:31:43.846Z,51.37
2018-11-12T22:34:19.622Z,58.43
2018-11-12T22:36:55.677Z,49.37
2018-11-12T22:39:31.535Z,49.20
2018-11-12T22:42:07.357Z,44.80
2018-11-12T22:44:43.250Z,36.27
2018-11-12T22:47:19.214Z,67.40
2018-11-12T22:49:55.081Z,51.93
2018-11-12T22:52:30.954Z,47.13
2018-11-12T22:55:06.978Z,50.50
2018-11-12T22:57:42.860Z,45.27
2018-11-12T23:00:27.156Z,30.43
2018-11-12T23:03:02.964Z,40.70
2018-11-12T23:05:38.779Z,33.93
2018-11-12T23:08:14.672Z,30.53
2018-11-12T23:10:50.484Z,37.60
2018-11-12T23:13:26.328Z,35.23
2018-11-12T23:16:02.646Z,32.33
2018-11-12T23:18:38.552Z,32.37
2018-11-12T23:21:14.421Z,32.60
2018-11-12T23:23:50.372Z,33.37
2018-11-12T23:26:26.205Z,33.63
2018-11-12T23:29:02.103Z,43.77
2018-11-12T23:31:37.953Z,35.37
2018-11-12T23:34:13.844Z,39.43
2018-11-12T23:36:49.789Z,46.67
2018-11-12T23:39:25.757Z,47.83
2018-11-12T23:42:01.502Z,45.17
2018-11-12T23:44:37.362Z,37.77
2018-11-12T23:47:13.292Z,34.70
2018-11-12T23:49:49.181Z,37.07
2018-11-12T23:52:24.977Z,35.97
2018-11-12T23:55:00.583Z,35.67
2018-11-12T23:57:36.297Z,35.53
